• Join FlightAware (Why Join?)
  • Login
  • US Flag 
11:26AM EST


 

Airport Tracker/Info


-or-


 

Live Flight TrackerFlight Track Log ✈ SKW5550 ✈ 22-Jun-2013 ✈ KCOD - KDEN

Flight Track Log - Related Links

Times and Time Zones

All times are in EDT time to prevent confusion due to time zone crossing. See the SKW5550 flight status page for this flight to view local times or setup timezone preferences in your user account.

Time Position Orientation Groundspeed Altitude Reporting Facility
EDT Latitude Longitude Course Direction KTS MPH feet Rate Location/Type
08:15AM 44.3049 -108.7755 154° Southeast  Level FlightAware Approximate
08:16AM 44.2022 -108.7131 158° South  Level FlightAware Approximate
08:17AM 44.0982 -108.6550 159° South  Level FlightAware Approximate
08:18AM 43.9939 -108.5981 159° South  Level FlightAware Approximate
08:18AM 44.0967 -108.6742 142° Southeast 396 456 17,200  Level Salt Lake Center
08:19AM 43.8903 -108.5387 157° South  Level FlightAware Approximate
08:19AM 44.0092 -108.6103 152° Southeast 374 430 18,800  Level Salt Lake Center
08:20AM 43.7870 -108.4785 157° South  Level FlightAware Approximate
08:20AM 43.9047 -108.5506 158° South 366 421 20,800  Level Salt Lake Center
08:21AM 43.6835 -108.4190 157° South  Level FlightAware Approximate
08:21AM 43.8153 -108.5011 158° South 362 417 22,300  Level Salt Lake Center
08:22AM 43.5800 -108.3599 158° South  Level FlightAware Approximate
08:22AM 43.7217 -108.4472 157° South 359 413 23,700  Level Salt Lake Center
08:23AM 43.4769 -108.2994 156° South  Level FlightAware Approximate
08:23AM 43.6331 -108.3981 158° South 358 412 25,000  Level Salt Lake Center
08:24AM 43.3852 -108.2125 142° Southeast  Level FlightAware Approximate
08:24AM 43.5450 -108.3475 157° South 359 413 26,200  Level Salt Lake Center
08:25AM 43.4431 -108.2831 155° Southeast 361 415 27,300 1,020 Climbing Salt Lake Center
08:26AM 43.3628 -108.1939 141° Southeast 380 437 28,300 900 Climbing Salt Lake Center
08:27AM 43.2831 -108.1092 142° Southeast 381 438 29,200 1,020 Climbing Salt Lake Center
08:28AM 43.1886 -108.0103 143° Southeast 382 440 30,400 840 Climbing Salt Lake Center
08:29AM 43.1081 -107.9250 142° Southeast 382 440 31,000 240 Climbing Salt Lake Center
08:30AM 43.0247 -107.8389 143° Southeast 388 447 31,000  Level Salt Lake Center
08:31AM 42.9217 -107.7300 142° Southeast 411 473 31,000  Level Salt Lake Center
08:32AM 42.8308 -107.6361 143° Southeast 424 488 31,000  Level Salt Lake Center
08:33AM 42.7383 -107.5378 142° Southeast 434 499 31,000  Level Salt Lake Center
08:34AM 42.6439 -107.4397 143° Southeast 442 509 31,000  Level Salt Lake Center
08:35AM 42.5331 -107.3267 143° Southeast 445 512 31,000  Level Salt Lake Center
08:36AM 42.4369 -107.2272 143° Southeast 451 519 31,000  Level Salt Lake Center
08:37AM 42.3383 -107.1342 145° Southeast 450 518 31,000  Level Salt Lake Center
08:38AM 42.2214 -107.0325 147° Southeast 449 517 31,000  Level Salt Lake Center
08:39AM 42.1206 -106.9436 147° Southeast 451 519 31,000  Level Salt Lake Center
08:40AM 42.0181 -106.8528 147° Southeast 455 524 31,000  Level Salt Lake Center
08:41AM 41.8994 -106.7489 147° Southeast 456 525 31,000  Level Salt Lake Center
08:42AM 41.7992 -106.6611 147° Southeast 451 519 31,000  Level Salt Lake Center
08:43AM 41.7006 -106.5792 148° Southeast 442 509 31,000  Level Salt Lake Center
08:44AM 41.6006 -106.4922 147° Southeast 444 511 31,000  Level Salt Lake Center
08:45AM 41.5461 -106.4439 146° Southeast 450 518 31,000  Level Denver Center
08:46AM 41.4300 -106.3436 147° Southeast 448 516 31,000  Level Denver Center
08:47AM 41.3283 -106.2575 148° Southeast 450 518 31,000  Level Denver Center
08:48AM 41.2264 -106.1700 147° Southeast 448 516 31,000  Level Denver Center
08:49AM 41.1103 -106.0711 147° Southeast 449 517 31,000  Level Denver Center
08:50AM 41.0097 -105.9864 148° Southeast 450 518 31,000 -420 Level Denver Center
08:51AM 40.9033 -105.8956 147° Southeast 455 524 30,200 -1,020 Descending Denver Center
08:52AM 40.8142 -105.8231 148° Southeast 467 537 29,000 -1,500 Descending Denver Center
08:53AM 40.6839 -105.7128 147° Southeast 465 535 27,200 -1,680 Descending Denver Center
08:54AM 40.5792 -105.6250 148° Southeast 451 519 25,600 -1,800 Descending Denver Center
08:55AM 40.4756 -105.5383 148° Southeast 443 510 23,600 -2,100 Descending Denver Center
08:56AM 40.3614 -105.4411 147° Southeast 428 493 21,400 -1,800 Descending Denver Center
08:57AM 40.2961 -105.3417 131° Southeast 360 414 20,000 -1,620 Descending Denver Center
08:58AM 40.2369 -105.2500 130° Southeast 332 382 18,200 -1,740 Descending Denver Center
08:59AM 40.1811 -105.1628 130° Southeast 315 362 16,500 -1,380 Descending Denver Center
09:00AM 40.1217 -105.0697 130° Southeast 312 359 15,400 -1,080 Descending Denver Center
09:01AM 40.0625 -104.9783 130° Southeast 326 375 14,400 -960 Descending Denver Center
09:02AM 40.0058 -104.8900 130° Southeast 318 366 13,500 -960 Descending Denver Center
09:03AM 39.9467 -104.8119 135° Southeast 300 345 12,500 -1,320 Descending Denver Center
09:04AM 39.8553 -104.8078 178° South 310 357 10,900 -780 Descending Denver Center
09:05AM 39.7764 -104.8100 181° South 281 323 11,000 -300 Climbing Denver Center
09:06AM 39.7058 -104.8111 181° South 259 298 10,300 -1,080 Descending Denver Center
09:07AM 39.6628 -104.7622 139° Southeast 275 316 8,900 -1,380 Descending Denver Center